createdAt,value
2022-08-28T00:00:29.509Z,98884.03
2022-08-28T00:02:57.502Z,98878.81
2022-08-28T00:05:27.488Z,98884.03
2022-08-28T00:07:54.208Z,98884.03
2022-08-28T00:10:22.548Z,98885.50
2022-08-28T00:12:51.216Z,98882.94
2022-08-28T00:15:23.787Z,98887.25
2022-08-28T00:17:51.100Z,98885.50
2022-08-28T00:20:20.566Z,98891.25
2022-08-28T00:22:48.586Z,98893.47
2022-08-28T00:25:20.640Z,98888.19
2022-08-28T00:27:53.082Z,98890.56
2022-08-28T00:30:25.917Z,98880.44
2022-08-28T00:32:55.750Z,98884.75
2022-08-28T00:35:23.721Z,98880.50
2022-08-28T00:37:51.886Z,98891.25
2022-08-28T00:40:30.420Z,98886.13
2022-08-28T00:43:04.425Z,98891.19
2022-08-28T00:45:37.257Z,98888.19
2022-08-28T00:48:05.715Z,98886.38
2022-08-28T00:51:00.571Z,98893.34
2022-08-28T00:53:32.721Z,98888.22
2022-08-28T00:56:04.215Z,98889.31
2022-08-28T00:58:37.462Z,98883.00
2022-08-28T01:01:04.581Z,98884.13
2022-08-28T01:03:31.502Z,98886.53
2022-08-28T01:05:58.375Z,98887.91
2022-08-28T01:08:25.017Z,98884.38
2022-08-28T01:11:01.221Z,98868.72
2022-08-28T01:13:28.529Z,98879.09
2022-08-28T01:15:58.054Z,98880.41
2022-08-28T01:18:27.532Z,98883.00
2022-08-28T01:21:34.902Z,98876.16
2022-08-28T01:24:11.909Z,98880.59
2022-08-28T01:26:38.621Z,98877.66
2022-08-28T01:29:07.146Z,98880.53
2022-08-28T01:31:34.472Z,98877.44
2022-08-28T01:34:02.121Z,98875.22
2022-08-28T01:36:31.353Z,98879.56
2022-08-28T01:39:10.303Z,98876.22
2022-08-28T01:41:43.389Z,98874.31
2022-08-28T01:44:10.485Z,98881.53
2022-08-28T01:46:37.760Z,98882.94
2022-08-28T01:49:06.293Z,98871.91
2022-08-28T01:51:35.094Z,98880.22
2022-08-28T01:54:06.038Z,98879.22
2022-08-28T01:56:33.918Z,98882.00
2022-08-28T01:59:04.811Z,98885.59
2022-08-28T02:01:31.593Z,98882.75
2022-08-28T02:03:58.327Z,98887.09
2022-08-28T02:06:25.678Z,98897.09
2022-08-28T02:08:55.406Z,98893.88
2022-08-28T02:11:24.170Z,98896.16
2022-08-28T02:13:53.038Z,98886.56
2022-08-28T02:16:23.055Z,98892.84
2022-08-28T02:18:49.887Z,98890.59
2022-08-28T02:21:16.982Z,98898.41
2022-08-28T02:23:44.471Z,98895.25
2022-08-28T02:26:14.334Z,98902.84
2022-08-28T02:28:41.681Z,98902.03
2022-08-28T02:31:09.301Z,98896.00
2022-08-28T02:33:39.151Z,98902.59
2022-08-28T02:36:10.022Z,98900.91
2022-08-28T02:38:38.078Z,98896.84
2022-08-28T02:41:06.318Z,98900.72
2022-08-28T02:43:33.371Z,98901.28
2022-08-28T02:46:00.126Z,98899.81
2022-08-28T02:48:32.809Z,98904.69
2022-08-28T02:51:08.983Z,98908.44
2022-08-28T02:53:36.215Z,98904.16
2022-08-28T02:56:04.295Z,98905.81
2022-08-28T02:58:32.718Z,98903.69
2022-08-28T03:01:01.704Z,98900.16
2022-08-28T03:03:31.108Z,98906.16
2022-08-28T03:05:59.895Z,98898.19
2022-08-28T03:08:27.509Z,98906.59
2022-08-28T03:10:54.318Z,98898.75
2022-08-28T03:13:26.676Z,98905.00
2022-08-28T03:15:55.691Z,98904.81
2022-08-28T03:18:25.356Z,98905.03
2022-08-28T03:20:52.871Z,98907.72
2022-08-28T03:23:28.690Z,98900.06
2022-08-28T03:26:23.827Z,98905.47
2022-08-28T03:28:53.224Z,98903.94
2022-08-28T03:31:24.487Z,98907.19
2022-08-28T03:33:53.082Z,98910.81
2022-08-28T03:36:28.263Z,98912.44
2022-08-28T03:38:59.225Z,98911.34
2022-08-28T03:41:29.037Z,98912.03
2022-08-28T03:43:58.211Z,98913.53
2022-08-28T03:46:26.438Z,98925.63
2022-08-28T03:48:55.385Z,98922.47
2022-08-28T03:51:29.539Z,98921.09
2022-08-28T03:53:58.877Z,98918.00
2022-08-28T03:56:28.509Z,98923.38
2022-08-28T03:59:00.419Z,98920.78
2022-08-28T04:01:28.009Z,98922.84
2022-08-28T04:03:55.732Z,98919.59
2022-08-28T04:06:22.883Z,98919.00
2022-08-28T04:08:50.876Z,98917.34
2022-08-28T04:11:18.151Z,98920.72
2022-08-28T04:13:45.162Z,98917.63
2022-08-28T04:16:16.532Z,98915.16
2022-08-28T04:18:46.683Z,98923.09
2022-08-28T04:21:28.875Z,98924.97
2022-08-28T04:23:56.104Z,98917.03
2022-08-28T04:26:26.335Z,98919.47
2022-08-28T04:28:55.248Z,98929.28
2022-08-28T04:31:31.700Z,98929.56
2022-08-28T04:34:02.087Z,98933.94
2022-08-28T04:36:29.299Z,98932.56
2022-08-28T04:38:58.424Z,98936.00
2022-08-28T04:41:25.440Z,98930.94
2022-08-28T04:43:53.660Z,98934.59
2022-08-28T04:46:20.436Z,98933.94
2022-08-28T04:48:47.222Z,98936.06
2022-08-28T04:51:15.010Z,98946.81
2022-08-28T04:53:42.497Z,98940.78
2022-08-28T04:56:13.000Z,98939.41
2022-08-28T04:58:41.626Z,98943.94
2022-08-28T05:01:16.097Z,98941.69
2022-08-28T05:03:42.967Z,98946.34
2022-08-28T05:06:12.582Z,98955.13
2022-08-28T05:08:39.368Z,98953.56
2022-08-28T05:11:33.314Z,98958.00
2022-08-28T05:14:12.655Z,98954.16
2022-08-28T05:16:52.807Z,98952.22
2022-08-28T05:19:21.439Z,98963.47
2022-08-28T05:21:48.376Z,98962.06
2022-08-28T05:24:15.320Z,98960.81
2022-08-28T05:26:42.452Z,98966.25
2022-08-28T05:29:11.101Z,98966.94
2022-08-28T05:31:39.136Z,98976.97
2022-08-28T05:34:07.004Z,98979.63
2022-08-28T05:36:36.332Z,98980.28
2022-08-28T05:39:07.954Z,98985.72
2022-08-28T05:41:35.191Z,98989.75
2022-08-28T05:44:07.080Z,98988.50
2022-08-28T05:46:36.600Z,98980.53
2022-08-28T05:49:07.755Z,98993.91
2022-08-28T05:51:36.600Z,98994.91
2022-08-28T05:54:03.881Z,99011.00
2022-08-28T05:56:35.187Z,99009.63
2022-08-28T05:59:04.123Z,99010.03
2022-08-28T06:01:35.281Z,99008.94
2022-08-28T06:04:19.025Z,99004.19
2022-08-28T06:06:46.095Z,99011.41
2022-08-28T06:09:20.122Z,99013.25
2022-08-28T06:11:47.506Z,99013.63
2022-08-28T06:14:19.483Z,99015.28
2022-08-28T06:16:52.243Z,99015.06
2022-08-28T06:19:22.749Z,99020.91
2022-08-28T06:21:53.727Z,99015.69
2022-08-28T06:24:20.468Z,99016.72
2022-08-28T06:26:47.174Z,99014.69
2022-08-28T06:29:17.103Z,99009.31
2022-08-28T06:31:44.497Z,99015.03
2022-08-28T06:34:12.103Z,99005.09
2022-08-28T06:36:42.703Z,99006.59
2022-08-28T06:39:13.555Z,99008.56
2022-08-28T06:41:43.068Z,99007.34
2022-08-28T06:44:13.363Z,99009.97
2022-08-28T06:46:41.454Z,99015.72
2022-08-28T06:49:08.669Z,99013.28
2022-08-28T06:51:36.375Z,99012.94
2022-08-28T06:54:04.727Z,99013.50
2022-08-28T06:56:31.711Z,99008.31
2022-08-28T06:59:00.768Z,99016.59
2022-08-28T07:01:32.306Z,99009.88
2022-08-28T07:04:04.489Z,99014.16
2022-08-28T07:06:34.550Z,99014.34
2022-08-28T07:09:03.755Z,99027.50
2022-08-28T07:11:32.681Z,99023.13
2022-08-28T07:14:01.290Z,99016.81
2022-08-28T07:16:34.702Z,99029.75
2022-08-28T07:19:04.619Z,99031.22
2022-08-28T07:21:36.928Z,99028.66
2022-08-28T07:24:07.720Z,99030.34
2022-08-28T07:26:36.202Z,99037.91
2022-08-28T07:29:10.997Z,99044.75
2022-08-28T07:31:48.983Z,99034.78
2022-08-28T07:34:18.612Z,99040.59
2022-08-28T07:36:46.075Z,99043.13
2022-08-28T07:39:15.263Z,99039.88
2022-08-28T07:41:43.025Z,99046.19
2022-08-28T07:44:31.878Z,99046.31
2022-08-28T07:47:03.981Z,99035.88
2022-08-28T07:49:31.462Z,99049.84
2022-08-28T07:51:58.508Z,99059.91
2022-08-28T07:54:25.250Z,99055.16
2022-08-28T07:56:52.613Z,99053.66
2022-08-28T07:59:20.144Z,99050.25
2022-08-28T08:01:50.489Z,99050.25
2022-08-28T08:04:19.845Z,99054.28
2022-08-28T08:06:46.826Z,99050.53
2022-08-28T08:09:17.791Z,99059.44
2022-08-28T08:11:46.004Z,99062.13
2022-08-28T08:14:14.684Z,99055.88
2022-08-28T08:16:45.776Z,99054.06
2022-08-28T08:19:14.688Z,99056.44
2022-08-28T08:21:46.012Z,99059.13
2022-08-28T08:24:19.683Z,99066.25
2022-08-28T08:26:58.978Z,99068.47
2022-08-28T08:29:31.732Z,99061.16
2022-08-28T08:32:06.877Z,99069.06
2022-08-28T08:34:40.761Z,99074.22
2022-08-28T08:37:08.032Z,99068.53
2022-08-28T08:39:36.407Z,99065.53
2022-08-28T08:42:07.778Z,99071.72
2022-08-28T08:44:40.342Z,99070.34
2022-08-28T08:47:18.375Z,99069.19
2022-08-28T08:50:04.339Z,99072.75
2022-08-28T08:53:01.075Z,99071.38
2022-08-28T08:55:42.447Z,99071.91
2022-08-28T08:58:29.100Z,99072.63
2022-08-28T09:01:14.685Z,99070.53
2022-08-28T09:03:53.682Z,99063.75
2022-08-28T09:06:42.206Z,99080.59
2022-08-28T09:09:24.079Z,99074.31
2022-08-28T09:11:58.324Z,99072.94
2022-08-28T09:15:05.371Z,99073.94
2022-08-28T09:17:47.947Z,99067.59
2022-08-28T09:20:32.389Z,99060.59
2022-08-28T09:23:00.239Z,99070.81
2022-08-28T09:25:59.609Z,99075.94
2022-08-28T09:28:38.887Z,99071.47
2022-08-28T09:31:10.486Z,99068.13
2022-08-28T09:33:53.272Z,99070.16
2022-08-28T09:36:31.450Z,99083.28
2022-08-28T09:39:27.323Z,99069.66
2022-08-28T09:42:25.367Z,99077.88
2022-08-28T09:44:57.907Z,99077.94
2022-08-28T09:47:46.705Z,99068.94
2022-08-28T09:50:37.435Z,99078.13
2022-08-28T09:53:10.365Z,99071.22
2022-08-28T09:56:07.774Z,99078.69
2022-08-28T09:58:59.339Z,99078.59
2022-08-28T10:01:44.996Z,99082.22
2022-08-28T10:04:15.660Z,99086.50
2022-08-28T10:06:52.911Z,99089.63
2022-08-28T10:10:06.522Z,99088.03
2022-08-28T10:12:43.005Z,99073.25
2022-08-28T10:15:43.506Z,99071.16
2022-08-28T10:19:03.948Z,99076.88
2022-08-28T10:21:51.468Z,99073.31
2022-08-28T10:24:38.599Z,99075.66
2022-08-28T10:27:55.203Z,99078.59
2022-08-28T10:30:24.677Z,99070.97
2022-08-28T10:33:04.291Z,99067.91
2022-08-28T10:35:43.459Z,99061.56
2022-08-28T10:38:18.373Z,99066.69
2022-08-28T10:41:12.459Z,99066.88
2022-08-28T10:43:51.052Z,99063.88
2022-08-28T10:46:43.463Z,99071.59
2022-08-28T10:49:41.003Z,99063.59
2022-08-28T10:52:15.971Z,99055.84
2022-08-28T10:55:07.613Z,99063.31
2022-08-28T10:57:49.043Z,99068.75
2022-08-28T11:00:22.228Z,99065.44
2022-08-28T11:03:22.288Z,99057.00
2022-08-28T11:06:11.322Z,99072.81
2022-08-28T11:08:39.685Z,99063.19
2022-08-28T11:11:13.637Z,99063.25
2022-08-28T11:13:53.895Z,99064.63
2022-08-28T11:16:38.647Z,99060.47
2022-08-28T11:19:39.701Z,99056.78
2022-08-28T11:22:24.010Z,99057.56
2022-08-28T11:25:03.256Z,99055.56
2022-08-28T11:27:36.846Z,99063.56
2022-08-28T11:30:09.676Z,99058.66
2022-08-28T11:32:51.355Z,99068.34
2022-08-28T11:35:20.952Z,99058.88
2022-08-28T11:37:54.763Z,99048.44
2022-08-28T11:40:31.649Z,99069.50
2022-08-28T11:43:16.736Z,99058.19
2022-08-28T11:45:45.809Z,99069.28
2022-08-28T11:48:25.878Z,99063.31
2022-08-28T11:51:03.439Z,99051.81
2022-08-28T11:53:50.571Z,99061.22
2022-08-28T11:56:41.520Z,99066.19
2022-08-28T11:59:39.677Z,99061.38
2022-08-28T12:02:40.447Z,99057.38
2022-08-28T12:05:32.364Z,99061.69
2022-08-28T12:08:02.493Z,99059.91
2022-08-28T12:10:30.547Z,99050.38
2022-08-28T12:13:07.233Z,99045.53
2022-08-28T12:15:33.985Z,99047.66
2022-08-28T12:18:40.157Z,99044.22
2022-08-28T12:21:14.752Z,99045.22
2022-08-28T12:24:09.166Z,99044.75
2022-08-28T12:26:44.745Z,99044.44
2022-08-28T12:29:31.052Z,99052.94
2022-08-28T12:32:47.665Z,99054.31
2022-08-28T12:35:20.485Z,99042.50
2022-08-28T12:38:03.569Z,99053.63
2022-08-28T12:40:52.759Z,99047.53
2022-08-28T12:43:35.764Z,99046.25
2022-08-28T12:46:32.808Z,99051.31
2022-08-28T12:49:03.570Z,99050.69
2022-08-28T12:51:33.194Z,99049.28
2022-08-28T12:54:06.977Z,99035.84
2022-08-28T12:56:38.993Z,99044.97
2022-08-28T12:59:35.066Z,99036.41
2022-08-28T13:02:18.297Z,99038.97
2022-08-28T13:04:56.054Z,99044.69
2022-08-28T13:07:47.335Z,99032.31
2022-08-28T13:10:49.763Z,99033.03
2022-08-28T13:13:33.629Z,99024.78
2022-08-28T13:16:07.944Z,99017.66
2022-08-28T13:19:30.334Z,99019.38
2022-08-28T13:22:01.846Z,99009.69
2022-08-28T13:24:36.346Z,99015.03
2022-08-28T13:27:16.977Z,99015.13
2022-08-28T13:30:25.859Z,99014.28
2022-08-28T13:33:04.725Z,99007.78
2022-08-28T13:35:36.930Z,99008.41
2022-08-28T13:38:11.507Z,99004.31
2022-08-28T13:40:59.294Z,98998.63
2022-08-28T13:43:37.886Z,99001.44
2022-08-28T13:46:05.250Z,98996.56
2022-08-28T13:48:32.038Z,98993.84
2022-08-28T13:51:11.254Z,98968.59
2022-08-28T13:53:41.186Z,98989.22
2022-08-28T13:56:07.914Z,98983.94
2022-08-28T13:58:34.696Z,98975.94
2022-08-28T14:01:01.789Z,98990.75
2022-08-28T14:03:38.334Z,98981.84
2022-08-28T14:06:16.676Z,98992.19
2022-08-28T14:08:45.391Z,98982.94
2022-08-28T14:11:15.633Z,98984.09
2022-08-28T14:13:47.106Z,98983.63
2022-08-28T14:16:24.843Z,98991.53
2022-08-28T14:18:52.686Z,98992.63
2022-08-28T14:21:19.581Z,98982.94
2022-08-28T14:23:48.178Z,98964.34
2022-08-28T14:26:14.859Z,98987.84
2022-08-28T14:28:42.247Z,98984.53
2022-08-28T14:31:13.686Z,98983.25
2022-08-28T14:33:41.678Z,98978.53
2022-08-28T14:36:20.973Z,98976.22
2022-08-28T14:38:48.710Z,98982.75
2022-08-28T14:41:17.311Z,98977.16
2022-08-28T14:43:45.312Z,98983.94
2022-08-28T14:46:36.753Z,98974.88
2022-08-28T14:49:08.348Z,98986.50
2022-08-28T14:51:38.343Z,98976.31
2022-08-28T14:54:05.879Z,98979.78
2022-08-28T14:56:32.622Z,98982.34
2022-08-28T14:59:01.438Z,98981.94
2022-08-28T15:01:39.647Z,98974.81
2022-08-28T15:04:18.085Z,98981.75
2022-08-28T15:06:45.694Z,98984.94
2022-08-28T15:09:13.888Z,98971.91
2022-08-28T15:11:42.135Z,98973.84
2022-08-28T15:14:08.974Z,98972.34
2022-08-28T15:16:41.290Z,98966.78
2022-08-28T15:19:12.075Z,98977.41
2022-08-28T15:21:48.988Z,98974.53
2022-08-28T15:24:19.527Z,98975.78
2022-08-28T15:26:46.755Z,98975.44
2022-08-28T15:29:13.875Z,98963.28
2022-08-28T15:31:46.565Z,98962.94
2022-08-28T15:34:18.366Z,98964.69
2022-08-28T15:36:54.624Z,98971.69
2022-08-28T15:39:41.067Z,98973.72
2022-08-28T15:42:09.815Z,98964.84
2022-08-28T15:44:37.274Z,98971.22
2022-08-28T15:47:05.013Z,98964.59
2022-08-28T15:49:36.153Z,98968.41
2022-08-28T15:52:10.522Z,98967.66
2022-08-28T15:54:37.230Z,98964.09
2022-08-28T15:57:04.106Z,98966.53
2022-08-28T15:59:38.088Z,98961.59
2022-08-28T16:02:19.277Z,98962.25
2022-08-28T16:04:46.050Z,98965.97
2022-08-28T16:07:12.879Z,98956.88
2022-08-28T16:09:40.718Z,98960.09
2022-08-28T16:12:07.556Z,98958.50
2022-08-28T16:14:34.495Z,98969.13
2022-08-28T16:17:05.572Z,98976.28
2022-08-28T16:19:37.575Z,98970.94
2022-08-28T16:22:04.448Z,98966.97
2022-08-28T16:24:31.123Z,98970.50
2022-08-28T16:26:57.848Z,98972.06
2022-08-28T16:29:24.503Z,98977.44
2022-08-28T16:31:51.286Z,98974.06
2022-08-28T16:34:19.422Z,98970.88
2022-08-28T16:36:48.015Z,98979.34
2022-08-28T16:39:14.828Z,98973.38
2022-08-28T16:41:42.082Z,98977.50
2022-08-28T16:44:09.210Z,98975.00
2022-08-28T16:46:35.966Z,98972.19
2022-08-28T16:49:03.549Z,98978.72
2022-08-28T16:51:30.279Z,98974.22
2022-08-28T16:53:57.890Z,98980.47
2022-08-28T16:56:24.855Z,98982.03
2022-08-28T16:58:53.025Z,98977.63
2022-08-28T17:01:21.884Z,98981.78
2022-08-28T17:03:52.696Z,98978.50
2022-08-28T17:06:27.299Z,98981.13
2022-08-28T17:08:57.090Z,98985.63
2022-08-28T17:11:28.404Z,98982.34
2022-08-28T17:13:55.678Z,98980.84
2022-08-28T17:16:23.565Z,98982.25
2022-08-28T17:18:52.399Z,98982.28
2022-08-28T17:21:39.852Z,98980.56
2022-08-28T17:24:08.052Z,98980.94
2022-08-28T17:26:34.801Z,98985.44
2022-08-28T17:29:01.738Z,98983.81
2022-08-28T17:31:28.564Z,98983.22
2022-08-28T17:33:55.439Z,98983.03
2022-08-28T17:36:33.019Z,98986.78
2022-08-28T17:39:06.764Z,98990.53
2022-08-28T17:41:33.710Z,98987.44
2022-08-28T17:44:01.870Z,98984.78
2022-08-28T17:46:31.760Z,98989.38
2022-08-28T17:49:01.627Z,98991.72
2022-08-28T17:51:43.070Z,98995.66
2022-08-28T17:54:18.165Z,98999.38
2022-08-28T17:56:45.272Z,99005.03
2022-08-28T17:59:12.694Z,99000.97
2022-08-28T18:01:41.779Z,99001.69
2022-08-28T18:04:08.929Z,99005.94
2022-08-28T18:06:35.711Z,99007.50
2022-08-28T18:09:04.793Z,99009.97
2022-08-28T18:11:31.560Z,99005.00
2022-08-28T18:13:59.640Z,99010.66
2022-08-28T18:16:31.220Z,99014.09
2022-08-28T18:18:59.442Z,99012.22
2022-08-28T18:21:26.621Z,99019.44
2022-08-28T18:23:53.343Z,99021.91
2022-08-28T18:26:20.153Z,99028.53
2022-08-28T18:28:47.209Z,99031.41
2022-08-28T18:31:14.030Z,99032.34
2022-08-28T18:33:40.801Z,99035.41
2022-08-28T18:36:09.833Z,99038.97
2022-08-28T18:38:37.127Z,99042.88
2022-08-28T18:41:08.442Z,99053.56
2022-08-28T18:43:36.450Z,99050.22
2022-08-28T18:46:05.346Z,99057.84
2022-08-28T18:48:32.673Z,99055.22
2022-08-28T18:50:59.301Z,99063.88
2022-08-28T18:53:28.736Z,99071.31
2022-08-28T18:55:55.901Z,99068.41
2022-08-28T18:58:23.766Z,99071.03
2022-08-28T19:00:51.046Z,99072.53
2022-08-28T19:03:17.697Z,99077.47
2022-08-28T19:05:44.482Z,99083.13
2022-08-28T19:08:11.388Z,99086.69
2022-08-28T19:10:38.603Z,99091.13
2022-08-28T19:13:06.706Z,99095.03
2022-08-28T19:15:34.562Z,99105.53
2022-08-28T19:18:02.701Z,99112.22
2022-08-28T19:20:30.549Z,99110.75
2022-08-28T19:22:58.408Z,99111.22
2022-08-28T19:25:30.257Z,99106.78
2022-08-28T19:27:59.839Z,99113.34
2022-08-28T19:30:31.076Z,99121.53
2022-08-28T19:32:57.752Z,99128.25
2022-08-28T19:35:24.866Z,99121.44
2022-08-28T19:37:52.891Z,99124.25
2022-08-28T19:40:20.902Z,99127.53
2022-08-28T19:42:49.715Z,99136.69
2022-08-28T19:45:16.791Z,99136.63
2022-08-28T19:47:43.520Z,99138.56
2022-08-28T19:58:42.910Z,99143.25
2022-08-28T20:01:10.462Z,99148.91
2022-08-28T20:03:39.321Z,99162.72
2022-08-28T20:06:06.452Z,99160.56
2022-08-28T20:08:34.141Z,99157.69
2022-08-28T20:11:01.855Z,99164.53
2022-08-28T20:13:29.023Z,99157.34
2022-08-28T20:15:55.805Z,99157.59
2022-08-28T20:18:23.527Z,99155.47
2022-08-28T20:20:51.449Z,99166.41
2022-08-28T20:23:18.643Z,99166.66
2022-08-28T20:25:50.114Z,99169.16
2022-08-28T20:28:18.808Z,99161.84
2022-08-28T20:30:46.818Z,99161.00
2022-08-28T20:33:14.051Z,99169.69
2022-08-28T20:35:42.744Z,99172.97
2022-08-28T20:38:11.001Z,99164.13
2022-08-28T20:40:37.923Z,99175.41
2022-08-28T20:43:05.713Z,99168.00
2022-08-28T20:45:32.451Z,99179.28
2022-08-28T20:47:59.456Z,99177.91
2022-08-28T20:50:26.552Z,99176.44
2022-08-28T20:52:53.175Z,99176.63
2022-08-28T20:55:19.937Z,99170.69
2022-08-28T20:57:46.559Z,99172.91
2022-08-28T21:00:13.900Z,99181.72
2022-08-28T21:02:40.764Z,99175.16
2022-08-28T21:05:08.358Z,99179.19
2022-08-28T21:07:35.140Z,99187.97
2022-08-28T21:10:06.774Z,99185.28
2022-08-28T21:12:36.730Z,99193.13
2022-08-28T21:15:09.143Z,99186.56
2022-08-28T21:17:35.956Z,99186.38
2022-08-28T21:20:09.250Z,99189.66
2022-08-28T21:22:37.896Z,99198.88
2022-08-28T21:25:08.171Z,99191.56
2022-08-28T21:27:35.404Z,99201.88
2022-08-28T21:30:04.599Z,99198.44
2022-08-28T21:32:32.553Z,99201.19
2022-08-28T21:35:00.906Z,99199.41
2022-08-28T21:37:27.768Z,99206.25
2022-08-28T21:39:56.489Z,99205.22
2022-08-28T21:42:23.744Z,99204.97
2022-08-28T21:44:51.951Z,99205.22
2022-08-28T21:47:22.801Z,99201.19
2022-08-28T21:49:51.319Z,99205.31
2022-08-28T21:52:19.720Z,99210.19
2022-08-28T21:54:46.508Z,99212.88
2022-08-28T21:57:13.354Z,99209.97
2022-08-28T21:59:40.529Z,99213.06
2022-08-28T22:02:07.297Z,99209.47
2022-08-28T22:04:34.718Z,99215.28
2022-08-28T22:07:01.915Z,99217.38
2022-08-28T22:09:28.968Z,99220.34
2022-08-28T22:11:55.690Z,99219.22
2022-08-28T22:14:24.972Z,99215.34
2022-08-28T22:16:51.928Z,99220.13
2022-08-28T22:19:18.756Z,99218.22
2022-08-28T22:22:04.292Z,99222.34
2022-08-28T22:24:30.989Z,99220.75
2022-08-28T22:26:57.888Z,99224.28
2022-08-28T22:29:25.396Z,99219.91
2022-08-28T22:31:52.640Z,99228.88
2022-08-28T22:34:19.632Z,99228.56
2022-08-28T22:36:46.380Z,99226.00
2022-08-28T22:39:13.051Z,99227.28
2022-08-28T22:41:40.244Z,99234.41
2022-08-28T22:44:07.589Z,99227.50
2022-08-28T22:46:35.136Z,99232.25
2022-08-28T22:49:01.789Z,99229.94
2022-08-28T22:51:28.493Z,99223.03
2022-08-28T22:53:55.876Z,99232.91
2022-08-28T22:56:22.513Z,99231.19
2022-08-28T22:58:49.268Z,99229.25
2022-08-28T23:01:20.903Z,99225.22
2022-08-28T23:03:48.641Z,99230.94
2022-08-28T23:06:15.491Z,99240.88
2022-08-28T23:08:43.197Z,99237.47
2022-08-28T23:11:10.578Z,99247.34
2022-08-28T23:13:40.933Z,99254.22
2022-08-28T23:16:08.017Z,99242.19
2022-08-28T23:19:03.988Z,99247.78
2022-08-28T23:21:26.396Z,99244.84
2022-08-28T23:23:54.003Z,99241.06
2022-08-28T23:26:21.891Z,99247.41
2022-08-28T23:28:48.634Z,99246.31
2022-08-28T23:31:15.488Z,99238.94
2022-08-28T23:33:42.575Z,99240.56
2022-08-28T23:36:09.836Z,99237.59
2022-08-28T23:38:42.827Z,99234.59
2022-08-28T23:41:10.855Z,99230.47
2022-08-28T23:43:38.795Z,99224.25
2022-08-28T23:46:06.736Z,99226.59
2022-08-28T23:48:33.586Z,99225.38
2022-08-28T23:51:02.015Z,99228.56
2022-08-28T23:53:29.272Z,99225.56
2022-08-28T23:55:55.924Z,99224.59
2022-08-28T23:58:22.658Z,99218.78
